Time;durP1;ratioP1;P1;durP2;ratioP2;P2;SDS_P1;SDS_P2;PMS_P1;PMS_P2;Temp;Humidity;BMP_temperature;BMP_pressure;BME280_temperature;BME280_humidity;BME280_pressure;Samples;Min_cycle;Max_cycle;Signal;HPM_P1;HPM_P2
2022/01/03 00:01:31;;;;;;;7.45;1.20;;;;;;;7.03;94.77;98130.63;4090758;28;20327;-72
2022/01/03 00:03:33;;;;;;;4.80;1.27;;;;;;;6.67;97.65;98089.81;4090263;28;20047;-72
2022/01/03 00:05:33;;;;;;;2.13;0.80;;;;;;;6.35;100.00;98130.34;4088265;28;20043;-72
2022/01/03 00:07:40;;;;;;;2.13;1.13;;;;;;;6.26;100.00;98127.00;4090046;28;20058;-72
2022/01/03 00:09:41;;;;;;;3.78;1.10;;;;;;;6.17;100.00;98133.47;4088977;28;20043;-72
2022/01/03 00:11:41;;;;;;;1.35;0.85;;;;;;;6.15;100.00;98118.53;4088526;28;20074;-72
2022/01/03 00:13:44;;;;;;;3.10;0.98;;;;;;;6.15;100.00;98115.78;4088396;28;20074;-72
2022/01/03 00:15:45;;;;;;;1.23;0.70;;;;;;;6.12;100.00;98098.06;4088310;28;20047;-71
2022/01/03 00:17:48;;;;;;;0.60;0.60;;;;;;;6.07;100.00;98092.84;4091068;28;20081;-72
2022/01/03 00:19:48;;;;;;;2.30;0.57;;;;;;;5.99;100.00;98080.09;4090986;28;20138;-72
2022/01/03 00:21:54;;;;;;;0.50;0.50;;;;;;;5.86;100.00;98070.34;4090550;28;20126;-71
2022/01/03 00:24:06;;;;;;;0.68;0.63;;;;;;;5.79;100.00;98087.47;4087763;28;20051;-72
2022/01/03 00:26:08;;;;;;;1.40;0.50;;;;;;;5.82;100.00;98070.25;4089028;28;20161;-72
2022/01/03 00:28:23;;;;;;;0.75;0.55;;;;;;;5.74;100.00;98084.97;4086744;28;20046;-71
2022/01/03 00:30:25;;;;;;;1.90;0.60;;;;;;;5.69;100.00;98081.69;4090670;28;20368;-72
2022/01/03 00:32:28;;;;;;;0.50;0.50;;;;;;;5.67;100.00;98067.53;4091793;28;20365;-72
2022/01/03 00:34:35;;;;;;;1.08;0.73;;;;;;;5.66;100.00;98071.44;4088494;28;20214;-72
2022/01/03 00:36:36;;;;;;;1.42;0.70;;;;;;;5.70;100.00;98072.31;4086599;28;20504;-72
2022/01/03 00:38:36;;;;;;;3.33;0.80;;;;;;;5.72;100.00;98043.38;4088855;28;20139;-72
2022/01/03 00:40:38;;;;;;;1.23;0.60;;;;;;;5.72;100.00;98056.28;4088214;28;20046;-72
2022/01/03 00:42:39;;;;;;;1.02;0.60;;;;;;;5.79;100.00;98050.94;4088345;28;20044;-72
2022/01/03 00:44:42;;;;;;;1.13;0.80;;;;;;;5.86;100.00;98065.63;4092091;28;20074;-72
2022/01/03 00:46:43;;;;;;;0.65;0.60;;;;;;;5.92;100.00;98060.72;4088098;28;20051;-72
2022/01/03 00:48:44;;;;;;;1.05;0.70;;;;;;;6.00;99.70;98056.19;4088020;28;20047;-72
2022/01/03 00:50:46;;;;;;;3.70;0.90;;;;;;;6.04;100.00;98049.63;4094387;28;20494;-72
2022/01/03 00:52:46;;;;;;;2.80;0.80;;;;;;;6.13;99.24;98047.47;4087832;28;20070;-72
2022/01/03 00:54:47;;;;;;;1.30;0.80;;;;;;;6.31;97.57;98053.34;4090062;28;20042;-72
2022/01/03 00:56:54;;;;;;;1.52;1.05;;;;;;;6.40;97.44;98042.94;4087700;28;20047;-72
2022/01/03 00:59:03;;;;;;;2.72;0.93;;;;;;;6.53;97.20;98059.28;4091088;28;20078;-72
2022/01/03 01:01:05;;;;;;;1.77;0.98;;;;;;;6.59;96.88;98046.84;4087738;28;20142;-72
2022/01/03 01:03:14;;;;;;;1.10;1.00;;;;;;;6.63;97.13;98053.22;4090251;28;20106;-72
2022/01/03 01:05:15;;;;;;;2.78;0.90;;;;;;;6.70;97.51;98061.59;4092110;28;20062;-72
2022/01/03 01:07:16;;;;;;;1.77;1.00;;;;;;;6.71;97.81;98049.44;4086763;28;20047;-72
2022/01/03 01:09:19;;;;;;;1.00;0.90;;;;;;;6.91;95.35;98052.97;4089458;28;20047;-72
2022/01/03 01:11:20;;;;;;;;;;;;;;;6.96;95.82;98049.94;4087282;28;20054;-72
2022/01/03 01:13:21;;;;;;;1.80;0.95;;;;;;;7.02;95.37;98051.19;4088269;28;19918;-72
2022/01/03 01:15:25;;;;;;;0.93;0.80;;;;;;;7.06;95.53;98065.03;4092816;28;20132;-72
2022/01/03 01:17:26;;;;;;;1.10;0.98;;;;;;;7.07;95.61;98061.13;4087596;28;20078;-72
2022/01/03 01:19:28;;;;;;;3.88;1.20;;;;;;;7.03;96.62;98055.53;4086917;28;20039;-72
2022/01/03 01:21:28;;;;;;;1.63;1.10;;;;;;;7.01;97.05;98055.91;4088081;28;20043;-72
2022/01/03 01:23:29;;;;;;;1.02;0.80;;;;;;;7.04;95.91;98054.41;4087887;28;20099;-72
2022/01/03 01:27:49;;;;;;;1.42;0.90;;;;;;;7.08;95.27;98060.75;4091085;28;20048;-72
2022/01/03 01:29:50;;;;;;;1.33;0.80;;;;;;;7.08;95.07;98058.00;4089358;28;20146;-72
2022/01/03 01:31:53;;;;;;;0.95;0.80;;;;;;;7.06;95.31;98054.81;4090153;28;20086;-72
2022/01/03 01:33:56;;;;;;;1.73;0.98;;;;;;;7.10;94.82;98057.63;4088128;28;20050;-72
2022/01/03 01:36:00;;;;;;;1.52;0.90;;;;;;;7.04;95.10;98060.69;4087576;28;20331;-72
2022/01/03 01:38:02;;;;;;;3.63;0.70;;;;;;;7.11;94.11;98056.47;4087073;28;20074;-72
2022/01/03 01:40:03;;;;;;;1.25;1.15;;;;;;;7.08;94.33;98058.00;4087825;28;20092;-72
2022/01/03 01:42:05;;;;;;;3.90;1.00;;;;;;;7.13;93.78;98060.47;4087258;28;20081;-72
2022/01/03 01:44:09;;;;;;;0.80;0.80;;;;;;;7.14;93.47;98059.31;4089249;28;20424;-72
2022/01/03 01:46:16;;;;;;;3.13;0.93;;;;;;;7.17;92.33;98060.50;4086675;28;20027;-72
2022/01/03 01:48:18;;;;;;;1.17;0.80;;;;;;;7.17;92.73;98066.03;4087437;28;20824;-72
2022/01/03 01:50:21;;;;;;;1.45;1.00;;;;;;;7.16;92.00;98062.47;4087246;28;20047;-72
2022/01/03 01:52:24;;;;;;;1.58;0.93;;;;;;;7.12;93.14;98063.59;4089601;28;20048;-72
2022/01/03 01:54:33;;;;;;;1.48;0.80;;;;;;;7.08;92.67;98058.00;4086062;28;20055;-72
2022/01/03 01:56:42;;;;;;;1.00;0.88;;;;;;;7.17;91.38;98066.03;4086404;28;20074;-72
2022/01/03 01:58:57;;;;;;;1.58;0.77;;;;;;;7.21;91.47;98047.63;4087692;28;20146;-72
2022/01/03 02:01:02;;;;;;;0.85;0.80;;;;;;;7.26;90.50;98055.56;4087692;28;20058;-72
2022/01/03 02:03:24;;;;;;;1.50;1.15;;;;;;;7.38;89.54;98060.13;4087496;28;20450;-72
2022/01/03 02:05:38;;;;;;;1.73;1.10;;;;;;;7.36;89.51;98054.94;4089963;28;20050;-72
2022/01/03 02:07:44;;;;;;;2.03;0.90;;;;;;;7.35;90.26;98055.31;4086590;28;20773;-72
2022/01/03 02:10:07;;;;;;;2.33;1.10;;;;;;;7.39;90.10;98057.00;4097275;28;20047;-72
2022/01/03 02:12:14;;;;;;;1.80;1.00;;;;;;;7.41;89.72;98054.66;4088070;28;20082;-72
2022/01/03 02:14:15;;;;;;;1.35;0.90;;;;;;;7.37;91.27;98051.06;4087633;28;20031;-72
2022/01/03 02:16:16;;;;;;;1.73;1.00;;;;;;;7.40;91.26;98052.28;4088796;28;20046;-72
2022/01/03 02:18:16;;;;;;;1.85;1.00;;;;;;;7.41;90.97;98060.16;4094304;28;20358;-72
2022/01/03 02:20:23;;;;;;;1.20;1.00;;;;;;;7.46;90.24;98070.88;4089487;28;20057;-72
2022/01/03 02:22:23;;;;;;;0.80;0.80;;;;;;;7.50;89.72;98068.16;4090861;28;20039;-72
2022/01/03 02:24:23;;;;;;;2.03;0.80;;;;;;;7.53;89.76;98064.69;4089855;28;20051;-72
2022/01/03 02:26:24;;;;;;;0.82;0.82;;;;;;;7.54;89.53;98074.56;4089908;28;20128;-72
2022/01/03 02:28:24;;;;;;;1.17;0.90;;;;;;;7.51;89.50;98069.75;4089470;28;20329;-72
2022/01/03 02:30:29;;;;;;;1.13;0.93;;;;;;;7.49;88.69;98066.59;4089945;28;20566;-72
2022/01/03 02:32:30;;;;;;;2.63;1.23;;;;;;;7.43;89.19;98070.81;4088654;28;20246;-72
2022/01/03 02:34:30;;;;;;;1.30;0.80;;;;;;;7.43;89.16;98076.31;4089527;28;20475;-72
2022/01/03 02:36:32;;;;;;;6.07;2.55;;;;;;;7.39;89.26;98078.22;4089874;28;20745;-72
2022/01/03 02:38:33;;;;;;;1.93;1.00;;;;;;;7.43;88.72;98074.34;4091339;28;20081;-72
2022/01/03 02:40:33;;;;;;;4.70;1.30;;;;;;;7.46;88.00;98083.84;4093853;28;20035;-72
2022/01/03 02:42:34;;;;;;;3.30;1.02;;;;;;;7.49;87.13;98078.41;4089154;28;20067;-72
2022/01/03 02:44:34;;;;;;;3.42;1.02;;;;;;;7.49;86.53;98072.88;4090809;28;20122;-72
2022/01/03 02:46:35;;;;;;;3.42;1.50;;;;;;;7.45;88.12;98083.06;4088724;28;20480;-73
2022/01/03 02:48:35;;;;;;;1.42;1.00;;;;;;;7.43;87.00;98077.09;4089431;28;20161;-72
2022/01/03 02:50:36;;;;;;;4.40;1.52;;;;;;;7.43;86.81;98079.06;4089957;28;20410;-72
2022/01/03 02:52:37;;;;;;;2.85;1.35;;;;;;;7.46;86.27;98086.59;4088439;28;20483;-72
2022/01/03 02:54:37;;;;;;;2.47;1.40;;;;;;;7.42;86.24;98085.72;4089860;28;20152;-72
2022/01/03 02:56:39;;;;;;;3.28;1.20;;;;;;;7.41;86.01;98084.13;4088404;28;20173;-72
2022/01/03 02:58:39;;;;;;;1.87;1.30;;;;;;;7.40;85.92;98094.34;4090287;28;20043;-72
2022/01/03 03:00:45;;;;;;;3.53;1.40;;;;;;;7.29;86.64;98083.16;4088854;28;20275;-72
2022/01/03 03:02:46;;;;;;;4.53;1.30;;;;;;;7.27;85.92;98095.69;4091100;28;20399;-72
2022/01/03 03:04:55;;;;;;;7.82;1.38;;;;;;;7.26;86.34;98094.09;4089744;28;20047;-72
2022/01/03 03:06:55;;;;;;;2.78;0.90;;;;;;;7.24;85.30;98091.72;4089326;28;20487;-72
2022/01/03 03:08:56;;;;;;;1.75;1.20;;;;;;;7.32;83.44;98096.19;4091113;28;20142;-72
2022/01/03 03:10:56;;;;;;;3.95;1.30;;;;;;;7.32;82.99;98090.69;4090109;28;20053;-72
2022/01/03 03:12:57;;;;;;;6.70;1.77;;;;;;;7.25;84.22;98090.53;4171512;28;20068;-72
2022/01/03 03:14:57;;;;;;;2.58;1.02;;;;;;;7.22;84.65;98091.28;4088482;28;20043;-72
2022/01/03 03:16:57;;;;;;;1.92;1.10;;;;;;;7.20;83.80;98103.81;4089762;28;20051;-72
2022/01/03 03:18:58;;;;;;;4.60;2.17;;;;;;;7.23;83.24;98089.34;4089492;28;20055;-72
2022/01/03 03:20:58;;;;;;;3.20;1.40;;;;;;;7.11;85.34;98087.53;4087797;28;20047;-72
2022/01/03 03:23:01;;;;;;;5.38;1.13;;;;;;;7.13;83.79;98093.47;4090211;28;20128;-72
2022/01/03 03:25:17;;;;;;;4.10;1.35;;;;;;;7.16;83.54;98087.25;4092556;28;20074;-72
2022/01/03 03:27:20;;;;;;;4.10;1.38;;;;;;;7.11;84.17;98098.53;4087567;28;20062;-72
2022/01/03 03:29:20;;;;;;;3.03;1.20;;;;;;;7.09;83.62;98094.56;4089858;28;20047;-72
2022/01/03 03:31:21;;;;;;;2.90;1.40;;;;;;;7.14;82.44;98092.31;4090160;28;20129;-72
2022/01/03 03:33:23;;;;;;;5.20;1.42;;;;;;;7.22;81.92;98080.28;4088797;28;20499;-72
2022/01/03 03:35:23;;;;;;;5.85;1.27;;;;;;;7.30;81.47;98082.00;4089481;28;20065;-72
2022/01/03 03:37:26;;;;;;;4.05;1.20;;;;;;;7.25;81.67;98095.25;4088417;28;20055;-72
2022/01/03 03:39:29;;;;;;;2.70;1.35;;;;;;;7.18;82.36;98079.41;4089840;28;20516;-72
2022/01/03 03:41:29;;;;;;;1.75;0.90;;;;;;;7.19;82.16;98086.50;4089032;28;20399;-72
2022/01/03 03:43:30;;;;;;;1.85;1.00;;;;;;;7.18;82.71;98089.63;4089017;28;20043;-72
2022/01/03 03:45:32;;;;;;;3.05;1.10;;;;;;;7.17;82.54;98097.06;4094379;28;20051;-72
2022/01/03 03:47:33;;;;;;;3.30;1.40;;;;;;;7.17;82.51;98094.31;4087879;28;20097;-72
2022/01/03 03:49:34;;;;;;;5.75;1.15;;;;;;;7.17;82.67;98077.81;4088856;28;20058;-72
2022/01/03 03:51:38;;;;;;;3.13;1.50;;;;;;;7.16;82.42;98078.97;4088869;28;20055;-72
2022/01/03 03:53:38;;;;;;;4.63;1.35;;;;;;;7.16;81.68;98098.25;4089160;28;20058;-72
2022/01/03 03:55:41;;;;;;;2.25;1.10;;;;;;;7.20;81.32;98103.81;4092882;28;20051;-72
2022/01/03 03:57:42;;;;;;;3.78;1.30;;;;;;;7.19;81.40;98092.00;4088779;28;20047;-72
2022/01/03 03:59:45;;;;;;;3.58;1.17;;;;;;;7.22;81.08;98107.00;4089285;28;20043;-72
2022/01/03 04:01:46;;;;;;;5.68;1.60;;;;;;;7.23;80.82;98086.56;4092191;28;20043;-72
2022/01/03 04:03:46;;;;;;;3.38;1.20;;;;;;;7.20;81.42;98088.13;4087477;28;20463;-72
2022/01/03 04:05:46;;;;;;;2.38;1.15;;;;;;;7.22;79.69;98091.28;4091368;28;20092;-72
2022/01/03 04:07:49;;;;;;;3.97;1.40;;;;;;;7.16;80.58;98091.94;4088075;28;20050;-72
2022/01/03 04:09:50;;;;;;;3.65;1.80;;;;;;;7.16;80.49;98090.00;4094567;28;20075;-72
2022/01/03 04:11:50;;;;;;;3.70;1.27;;;;;;;7.12;80.98;98100.16;4088900;28;20046;-72
2022/01/03 04:13:55;;;;;;;3.17;1.90;;;;;;;7.06;80.63;98092.53;4088779;28;20047;-72
2022/01/03 04:15:56;;;;;;;1.70;1.02;;;;;;;7.19;79.48;98103.00;4089311;28;20047;-72
2022/01/03 04:17:56;;;;;;;2.17;0.80;;;;;;;7.23;79.66;98097.59;4088211;28;20514;-72
2022/01/03 04:19:56;;;;;;;2.85;0.85;;;;;;;7.15;80.38;98110.41;4088285;28;20043;-72
2022/01/03 04:21:57;;;;;;;1.67;0.60;;;;;;;7.03;81.93;98103.13;4088364;28;20476;-72
2022/01/03 04:23:57;;;;;;;2.50;1.00;;;;;;;7.01;82.37;98099.13;4088593;28;20386;-72
2022/01/03 04:25:58;;;;;;;1.42;0.90;;;;;;;6.95;83.35;98109.66;4088633;28;20047;-72
2022/01/03 04:27:58;;;;;;;1.42;0.90;;;;;;;6.93;83.84;98111.94;4087503;28;20113;-72
2022/01/03 04:29:59;;;;;;;1.00;0.90;;;;;;;6.89;84.26;98107.53;4087954;28;20464;-72
2022/01/03 04:32:02;;;;;;;3.58;0.95;;;;;;;6.82;84.76;98101.91;4094122;28;20369;-72
2022/01/03 04:34:02;;;;;;;5.13;1.15;;;;;;;6.80;85.08;98099.50;4087572;28;20058;-72
2022/01/03 04:36:04;;;;;;;4.45;1.30;;;;;;;6.74;85.56;98104.50;4088011;28;20486;-72
2022/01/03 04:38:05;;;;;;;3.85;0.93;;;;;;;6.79;84.93;98099.88;4087664;28;20780;-72
2022/01/03 04:40:06;;;;;;;5.03;1.27;;;;;;;6.85;84.42;98109.41;4088464;28;20096;-72
2022/01/03 04:42:07;;;;;;;4.00;1.70;;;;;;;6.82;84.46;98097.19;4090114;28;20039;-72
2022/01/03 04:44:08;;;;;;;7.45;1.38;;;;;;;6.80;84.69;98096.75;4088430;28;20039;-72
2022/01/03 04:46:08;;;;;;;5.07;1.48;;;;;;;6.81;84.92;98094.81;4087880;28;20078;-72
2022/01/03 04:48:09;;;;;;;3.50;1.25;;;;;;;6.77;84.59;98105.72;4089201;28;20031;-72
2022/01/03 04:50:10;;;;;;;5.55;1.30;;;;;;;6.79;84.80;98106.19;4088020;28;20516;-72
2022/01/03 04:52:10;;;;;;;7.18;1.52;;;;;;;6.91;83.89;98108.75;4087917;28;20038;-72
2022/01/03 04:54:11;;;;;;;4.50;1.52;;;;;;;6.90;84.10;98089.88;4088699;28;20387;-72
2022/01/03 04:56:13;;;;;;;7.32;1.75;;;;;;;6.89;83.99;98104.78;4087349;28;20497;-72
2022/01/03 04:58:13;;;;;;;5.00;1.15;;;;;;;6.88;83.83;98109.50;4087497;28;20143;-72
2022/01/03 05:00:14;;;;;;;3.03;1.00;;;;;;;6.82;84.59;98110.94;4089635;28;20580;-72
2022/01/03 05:02:14;;;;;;;3.22;1.30;;;;;;;6.84;83.66;98107.81;4089970;28;20039;-72
2022/01/03 05:04:15;;;;;;;4.95;1.88;;;;;;;6.83;83.67;98115.28;4087348;28;20383;-72
2022/01/03 05:06:17;;;;;;;3.95;1.30;;;;;;;6.80;83.84;98106.97;4088667;28;20389;-72
2022/01/03 05:08:18;;;;;;;4.25;1.60;;;;;;;6.76;83.52;98118.66;4115612;28;20043;-72
2022/01/03 05:10:18;;;;;;;5.35;1.83;;;;;;;6.82;82.92;98108.19;4110546;28;20049;-72
2022/01/03 05:12:21;;;;;;;9.77;1.73;;;;;;;6.76;82.89;98118.66;4097553;28;20038;-72
2022/01/03 05:14:21;;;;;;;4.22;1.70;;;;;;;6.84;81.90;98119.63;4088987;28;20112;-72
2022/01/03 05:16:24;;;;;;;9.73;1.83;;;;;;;6.86;82.12;98114.53;4088728;28;20055;-72
2022/01/03 05:18:25;;;;;;;4.60;1.33;;;;;;;6.83;82.51;98119.97;4087251;28;20051;-72
2022/01/03 05:20:25;;;;;;;6.80;1.58;;;;;;;6.72;82.91;98126.06;4088422;28;20403;-72
2022/01/03 05:22:26;;;;;;;6.22;1.58;;;;;;;6.69;83.21;98124.03;4087909;28;20051;-72
2022/01/03 05:24:26;;;;;;;6.07;1.52;;;;;;;6.74;83.04;98136.69;4091704;28;20079;-72
2022/01/03 05:26:26;;;;;;;4.45;1.92;;;;;;;6.67;83.64;98125.53;4088199;28;20153;-72
2022/01/03 05:28:27;;;;;;;4.65;1.30;;;;;;;6.72;82.49;98123.31;4087345;28;20202;-72
2022/01/03 05:30:30;;;;;;;4.70;1.23;;;;;;;6.81;82.09;98123.09;4089132;28;20195;-72
2022/01/03 05:35:27;;;;;;;4.97;1.30;;;;;;;6.78;82.37;98120.25;4094890;28;20049;-72
2022/01/03 05:40:25;;;;;;;8.20;2.10;;;;;;;6.78;82.23;98131.25;4093013;28;20526;-72
2022/01/03 05:45:25;;;;;;;5.72;1.35;;;;;;;6.68;82.51;98121.63;4086895;28;20053;-72
2022/01/03 05:50:22;;;;;;;4.35;1.10;;;;;;;6.62;82.68;98128.56;4090575;28;20490;-72
2022/01/03 05:55:20;;;;;;;3.45;1.77;;;;;;;6.57;83.01;98139.88;4086843;28;20060;-72
2022/01/03 06:00:20;;;;;;;7.18;1.67;;;;;;;6.56;84.42;98157.53;4091110;28;20082;-72
2022/01/03 06:05:32;;;;;;;5.10;1.95;;;;;;;6.61;83.87;98152.50;4097676;28;20555;-72
2022/01/03 06:10:29;;;;;;;4.45;1.58;;;;;;;6.56;84.38;98152.03;4092896;28;20105;-72
2022/01/03 06:15:27;;;;;;;4.68;2.05;;;;;;;6.54;83.86;98152.38;4092246;28;20053;-72
2022/01/03 06:20:24;;;;;;;4.15;1.42;;;;;;;6.42;83.53;98158.78;4092802;28;20654;-72
2022/01/03 06:25:24;;;;;;;2.45;1.40;;;;;;;6.42;84.16;98155.25;4093077;28;20054;-72
2022/01/03 06:27:24;;;;;;;7.18;2.03;;;;;;;6.37;84.12;98172.00;4090916;28;20071;-72
2022/01/03 06:29:25;;;;;;;9.35;2.50;;;;;;;6.36;83.51;98164.91;4092359;28;20231;-72
2022/01/03 06:31:25;;;;;;;3.55;1.50;;;;;;;6.37;83.45;98159.06;4089584;28;20120;-72
2022/01/03 06:33:25;;;;;;;4.95;1.35;;;;;;;6.35;84.17;98160.56;4089724;28;20101;-72
2022/01/03 06:35:26;;;;;;;8.75;2.85;;;;;;;6.39;83.76;98165.00;4090367;28;20063;-72
2022/01/03 06:37:26;;;;;;;3.40;2.38;;;;;;;6.38;83.74;98168.13;4088649;28;20047;-72
2022/01/03 06:39:27;;;;;;;2.97;1.30;;;;;;;6.42;83.41;98182.72;4091258;28;20054;-72
2022/01/03 06:41:27;;;;;;;4.50;1.38;;;;;;;6.42;83.26;98179.97;4088977;28;20039;-72
2022/01/03 06:43:27;;;;;;;7.85;1.65;;;;;;;6.43;82.62;98174.13;4089385;28;20070;-72
2022/01/03 06:45:28;;;;;;;3.78;1.42;;;;;;;6.42;82.82;98175.28;4089470;28;20147;-72
2022/01/03 06:47:29;;;;;;;4.82;1.80;;;;;;;6.42;82.87;98185.47;4088433;28;20338;-72
2022/01/03 06:49:29;;;;;;;6.95;1.25;;;;;;;6.44;82.08;98185.91;4090178;28;20345;-72
2022/01/03 06:51:34;;;;;;;3.88;1.17;;;;;;;6.42;82.40;98196.47;4091665;28;20316;-72
2022/01/03 06:53:34;;;;;;;5.72;1.80;;;;;;;6.37;82.69;98186.56;4102842;28;20047;-72
2022/01/03 06:55:35;;;;;;;3.35;1.45;;;;;;;6.41;82.97;98192.13;4095223;28;20743;-72
2022/01/03 06:57:35;;;;;;;7.53;2.38;;;;;;;6.28;83.73;98188.66;4092135;28;20303;-72
2022/01/03 06:59:35;;;;;;;7.15;3.30;;;;;;;6.28;83.15;98188.66;4091277;28;20039;-72
2022/01/03 07:01:37;;;;;;;6.63;2.78;;;;;;;6.33;83.01;98193.09;4091117;28;20046;-72
2022/01/03 07:03:37;;;;;;;6.45;2.22;;;;;;;6.36;83.75;98192.38;4088493;28;20496;-72
2022/01/03 07:05:37;;;;;;;4.93;1.60;;;;;;;6.36;83.63;98186.88;4088893;28;20047;-72
2022/01/03 07:07:38;;;;;;;6.65;1.63;;;;;;;6.40;83.75;98191.31;4088881;28;20054;-72
2022/01/03 07:09:39;;;;;;;4.15;1.50;;;;;;;6.34;83.37;98180.97;4092938;28;20044;-72
2022/01/03 07:11:39;;;;;;;6.15;1.38;;;;;;;6.25;84.30;98178.41;4093630;28;20565;-72
2022/01/03 07:13:52;;;;;;;9.27;1.73;;;;;;;6.37;82.38;98188.47;4089553;28;20453;-72
2022/01/03 07:20:31;;;;;;;5.68;1.35;;;;;;;6.43;81.53;98193.34;4087898;28;20045;-72
2022/01/03 07:22:31;;;;;;;3.50;1.38;;;;;;;6.45;81.33;98185.56;4090418;28;20248;-72
2022/01/03 07:24:32;;;;;;;7.30;2.08;;;;;;;6.56;80.30;98196.00;4094678;28;20310;-72
2022/01/03 07:26:32;;;;;;;4.15;1.45;;;;;;;6.52;81.36;98178.63;4088210;28;20043;-72
2022/01/03 07:28:33;;;;;;;3.92;1.05;;;;;;;6.46;82.48;98181.66;4089226;28;20050;-72
2022/01/03 07:30:33;;;;;;;5.82;1.80;;;;;;;6.47;82.20;98183.25;4088749;28;20047;-72
2022/01/03 07:32:33;;;;;;;6.65;1.42;;;;;;;6.46;82.63;98184.41;4089460;28;20601;-72
2022/01/03 07:34:34;;;;;;;3.35;1.63;;;;;;;6.51;82.13;98197.06;4089195;28;20168;-72
2022/01/03 07:36:34;;;;;;;6.05;1.48;;;;;;;6.47;82.64;98185.19;4092336;28;20043;-72
2022/01/03 07:38:36;;;;;;;4.03;1.30;;;;;;;6.41;83.20;98190.16;4089848;28;20153;-72
2022/01/03 07:40:36;;;;;;;6.38;1.48;;;;;;;6.43;83.05;98185.09;4088529;28;20047;-72
2022/01/03 07:42:37;;;;;;;5.93;1.65;;;;;;;6.45;82.65;98191.06;4088603;28;20154;-72
2022/01/03 07:44:37;;;;;;;4.82;1.30;;;;;;;6.47;82.72;98188.75;4089512;28;20538;-72
2022/01/03 07:46:38;;;;;;;7.13;1.52;;;;;;;6.42;82.41;98194.50;4093620;28;20320;-72
2022/01/03 07:48:38;;;;;;;7.53;1.98;;;;;;;6.54;82.13;98201.03;4090292;28;20569;-72
2022/01/03 07:50:39;;;;;;;4.18;1.42;;;;;;;6.63;81.18;98199.72;4092933;28;20039;-72
2022/01/03 07:52:40;;;;;;;5.57;1.23;;;;;;;6.65;80.77;98200.13;4088916;28;20047;-73
2022/01/03 07:54:40;;;;;;;5.45;1.38;;;;;;;6.64;80.41;98204.03;4087994;28;20047;-72
2022/01/03 07:56:41;;;;;;;8.07;1.60;;;;;;;6.69;79.57;98208.44;4088875;28;20043;-72
2022/01/03 07:58:41;;;;;;;5.03;1.80;;;;;;;6.61;81.32;98212.19;4088576;28;20139;-72
2022/01/03 08:00:41;;;;;;;4.20;2.17;;;;;;;6.58;81.19;98205.47;4088160;28;20062;-72
2022/01/03 08:02:43;;;;;;;3.63;1.20;;;;;;;6.54;80.99;98203.78;4089925;28;20491;-72
2022/01/03 08:04:43;;;;;;;3.00;1.55;;;;;;;6.51;81.76;98204.50;4088741;28;20047;-72
2022/01/03 08:06:43;;;;;;;5.40;1.98;;;;;;;6.50;81.35;98202.91;4088046;28;20113;-72
2022/01/03 08:08:44;;;;;;;4.38;1.40;;;;;;;6.47;81.53;98204.44;4089182;28;20263;-72
2022/01/03 08:10:46;;;;;;;7.13;2.72;;;;;;;6.54;80.84;98206.53;4089011;28;20051;-72
2022/01/03 08:12:46;;;;;;;2.65;1.80;;;;;;;6.56;80.84;98207.78;4088083;28;20047;-72
2022/01/03 08:14:47;;;;;;;7.22;3.22;;;;;;;6.57;80.85;98214.09;4092524;28;20376;-72
2022/01/03 08:16:47;;;;;;;7.82;2.47;;;;;;;6.60;80.34;98208.66;4088944;28;20940;-72
2022/01/03 08:18:47;;;;;;;6.00;1.25;;;;;;;6.58;80.05;98210.19;4088136;28;20514;-72
2022/01/03 08:20:50;;;;;;;4.30;1.30;;;;;;;6.68;79.15;98207.66;4089252;28;20117;-72
2022/01/03 08:22:52;;;;;;;6.93;1.40;;;;;;;6.72;79.46;98199.50;4088456;28;20354;-72
2022/01/03 08:24:52;;;;;;;6.18;1.50;;;;;;;6.76;79.26;98211.38;4089248;28;20446;-72
2022/01/03 08:26:54;;;;;;;4.72;1.80;;;;;;;6.77;78.68;98212.94;4087210;28;20133;-72
2022/01/03 08:28:54;;;;;;;5.85;1.80;;;;;;;6.88;78.55;98210.47;4089962;28;20054;-72
2022/01/03 08:30:55;;;;;;;3.30;1.23;;;;;;;6.90;78.72;98213.63;4090215;28;20128;-72
2022/01/03 08:32:55;;;;;;;3.17;1.38;;;;;;;6.90;79.09;98211.69;4091680;28;20119;-72
2022/01/03 08:34:55;;;;;;;3.35;1.65;;;;;;;6.85;79.27;98220.22;4089899;28;20056;-72
2022/01/03 08:36:56;;;;;;;4.40;1.17;;;;;;;6.81;79.50;98222.09;4159127;28;20064;-72
2022/01/03 08:38:56;;;;;;;2.75;1.10;;;;;;;6.81;79.32;98229.56;4088478;28;20417;-72
2022/01/03 08:40:56;;;;;;;5.18;1.23;;;;;;;6.85;79.33;98217.47;4087763;28;20146;-72
2022/01/03 08:42:58;;;;;;;2.90;1.08;;;;;;;6.83;79.23;98222.53;4093779;28;20042;-72
2022/01/03 08:44:59;;;;;;;3.95;1.20;;;;;;;6.85;79.77;98217.47;4089884;28;20055;-72
2022/01/03 08:46:59;;;;;;;5.38;1.48;;;;;;;6.86;78.61;98210.78;4086896;28;20422;-72
2022/01/03 08:49:00;;;;;;;4.68;1.75;;;;;;;6.91;78.84;98215.22;4089281;28;20146;-72
2022/01/03 08:51:00;;;;;;;4.28;1.25;;;;;;;6.99;77.82;98220.53;4089333;28;20353;-72
2022/01/03 08:53:02;;;;;;;8.00;1.40;;;;;;;7.07;76.85;98201.41;4168832;28;20040;-72
2022/01/03 08:55:04;;;;;;;5.35;1.38;;;;;;;7.19;76.47;98213.06;4087859;28;20418;-72
2022/01/03 08:57:04;;;;;;;5.95;1.42;;;;;;;7.15;77.16;98206.72;4091310;28;20109;-72
2022/01/03 08:59:06;;;;;;;4.40;1.45;;;;;;;7.16;77.55;98215.75;4088762;28;20078;-72
2022/01/03 09:01:06;;;;;;;4.95;1.40;;;;;;;7.21;77.13;98201.72;4087038;28;20054;-72
2022/01/03 09:03:06;;;;;;;2.65;1.70;;;;;;;7.22;77.71;98209.59;4089975;28;20043;-73
2022/01/03 09:05:07;;;;;;;5.32;1.25;;;;;;;7.20;77.75;98214.69;4087981;28;20051;-73
2022/01/03 09:07:08;;;;;;;2.83;1.45;;;;;;;7.25;77.57;98211.63;4086851;28;20039;-73
2022/01/03 09:09:08;;;;;;;3.80;1.30;;;;;;;7.27;77.89;98216.75;4088511;28;20051;-73
2022/01/03 09:11:08;;;;;;;4.20;1.20;;;;;;;7.29;77.60;98201.50;4090693;28;20086;-73
2022/01/03 09:13:09;;;;;;;3.60;1.10;;;;;;;7.35;77.46;98209.44;4088060;28;20051;-73
2022/01/03 09:15:09;;;;;;;3.30;1.15;;;;;;;7.30;77.88;98211.34;4087805;28;20062;-73
2022/01/03 09:17:10;;;;;;;4.43;1.33;;;;;;;7.32;77.98;98213.72;4088475;28;20105;-73
2022/01/03 09:19:10;;;;;;;5.05;1.65;;;;;;;7.42;76.69;98217.84;4087905;28;20142;-73
2022/01/03 09:21:11;;;;;;;5.70;1.40;;;;;;;7.48;76.27;98216.41;4088355;28;20043;-73
2022/01/03 09:23:24;;;;;;;5.38;1.30;;;;;;;7.54;76.34;98220.47;4088773;28;20047;-73
2022/01/03 09:29:56;;;;;;;4.47;1.00;;;;;;;7.54;77.61;98214.94;4089819;28;20571;-73
2022/01/03 09:31:56;;;;;;;3.50;1.00;;;;;;;7.51;76.94;98210.94;4090851;28;20142;-73
2022/01/03 09:33:59;;;;;;;3.95;1.13;;;;;;;7.54;77.35;98224.00;4093034;28;20078;-73
2022/01/03 09:35:59;;;;;;;;;;;;;;;7.55;77.43;98220.09;4096271;28;20146;-73
2022/01/03 09:38:00;;;;;;;5.05;1.63;;;;;;;7.55;77.23;98222.03;4090828;28;19950;-73
2022/01/03 09:40:01;;;;;;;3.78;1.42;;;;;;;7.55;77.03;98216.53;4090974;28;20051;-73
2022/01/03 09:42:05;;;;;;;8.73;2.10;;;;;;;7.54;76.81;98215.75;4090176;28;20526;-73
2022/01/03 09:44:11;;;;;;;3.00;1.48;;;;;;;7.58;77.38;98215.81;4093664;28;20039;-73
2022/01/03 09:46:13;;;;;;;6.65;2.70;;;;;;;7.59;77.66;98215.44;4093082;28;20683;-73
2022/01/03 09:48:14;;;;;;;7.53;1.48;;;;;;;7.60;77.42;98207.97;4091854;28;20451;-73
2022/01/03 09:50:20;;;;;;;6.43;1.50;;;;;;;7.74;76.29;98212.94;4090442;28;20546;-73
2022/01/03 09:52:23;;;;;;;10.02;2.10;;;;;;;7.81;76.72;98224.09;4090445;28;20116;-73
2022/01/03 09:54:24;;;;;;;5.88;1.60;;;;;;;7.91;76.36;98212.47;4094169;28;20043;-73
2022/01/03 09:56:26;;;;;;;5.00;1.40;;;;;;;8.04;76.40;98227.66;4089989;28;20050;-73
2022/01/03 09:58:26;;;;;;;4.47;1.40;;;;;;;8.11;75.38;98230.56;4089694;28;20048;-73
2022/01/03 10:00:27;;;;;;;4.28;1.73;;;;;;;8.10;75.41;98223.41;4091445;28;20473;-73
2022/01/03 10:02:27;;;;;;;4.05;1.30;;;;;;;8.11;76.21;98221.50;4090127;28;20043;-73
2022/01/03 10:04:28;;;;;;;6.13;1.30;;;;;;;8.06;76.75;98219.81;4090724;28;20047;-73
2022/01/03 10:06:29;;;;;;;10.27;1.70;;;;;;;8.09;76.07;98216.31;4092910;28;20039;-73
2022/01/03 10:08:29;;;;;;;7.40;2.05;;;;;;;8.10;76.75;98217.13;4092646;28;20402;-73
2022/01/03 10:10:30;;;;;;;5.90;1.90;;;;;;;8.07;76.93;98217.88;4095816;28;20505;-73
2022/01/03 10:12:30;;;;;;;6.95;3.50;;;;;;;8.16;77.43;98216.44;4090124;28;20047;-73
2022/01/03 10:14:31;;;;;;;9.38;2.13;;;;;;;8.09;77.92;98221.84;4091188;28;20200;-73
2022/01/03 10:16:31;;;;;;;3.53;1.75;;;;;;;8.05;77.32;98218.25;4094253;28;20254;-73
2022/01/03 10:18:33;;;;;;;7.13;1.67;;;;;;;8.02;77.40;98218.97;4089969;28;20047;-73
2022/01/03 10:20:39;;;;;;;4.68;1.40;;;;;;;8.04;77.62;98219.41;4090859;28;20089;-73
2022/01/03 10:22:44;;;;;;;4.93;1.50;;;;;;;8.10;76.86;98217.91;4088998;28;20102;-73
2022/01/03 10:24:44;;;;;;;6.70;1.30;;;;;;;8.16;78.08;98221.97;4089850;28;20514;-73